createdAt,value
2017-09-20T00:00:20.068Z,30.45
2017-09-20T00:02:47.710Z,33.75
2017-09-20T00:05:15.324Z,31.62
2017-09-20T00:07:42.932Z,28.85
2017-09-20T00:10:10.584Z,32.15
2017-09-20T00:12:38.178Z,25.83
2017-09-20T00:15:05.808Z,27.83
2017-09-20T00:17:33.445Z,30.60
2017-09-20T00:20:01.088Z,30.25
2017-09-20T00:22:28.715Z,29.40
2017-09-20T00:24:56.340Z,32.72
2017-09-20T00:27:24.031Z,25.70
2017-09-20T00:29:51.686Z,30.15
2017-09-20T00:32:19.403Z,29.90
2017-09-20T00:34:47.110Z,24.83
2017-09-20T00:37:14.750Z,26.65
2017-09-20T00:39:42.344Z,30.23
2017-09-20T00:42:09.991Z,26.95
2017-09-20T00:44:37.655Z,21.23
2017-09-20T00:47:05.249Z,29.73
2017-09-20T00:49:32.909Z,22.62
2017-09-20T00:52:00.559Z,25.30
2017-09-20T00:54:29.002Z,35.17
2017-09-20T00:56:56.675Z,52.80
2017-09-20T00:59:24.350Z,36.45
2017-09-20T01:01:52.054Z,37.10
2017-09-20T01:04:19.736Z,30.15
2017-09-20T01:06:47.372Z,32.97
2017-09-20T01:09:15.122Z,31.20
2017-09-20T01:11:42.746Z,34.85
2017-09-20T01:14:10.396Z,32.53
2017-09-20T01:16:38.044Z,31.62
2017-09-20T01:19:05.765Z,30.52
2017-09-20T01:21:56.992Z,30.52
2017-09-20T01:24:24.662Z,28.25
2017-09-20T01:26:52.876Z,24.33
2017-09-20T01:29:20.528Z,30.85
2017-09-20T01:31:48.165Z,31.50
2017-09-20T01:34:15.823Z,32.00
2017-09-20T01:36:43.469Z,29.50
2017-09-20T01:39:11.225Z,29.35
2017-09-20T01:41:38.878Z,28.87
2017-09-20T01:44:07.333Z,26.67
2017-09-20T01:46:34.976Z,25.55
2017-09-20T01:49:02.723Z,26.80
2017-09-20T01:51:30.337Z,27.95
2017-09-20T01:53:57.975Z,32.47
2017-09-20T01:56:25.605Z,42.70
2017-09-20T01:58:53.266Z,36.08
2017-09-20T02:01:20.934Z,45.20
2017-09-20T02:03:48.583Z,34.70
2017-09-20T02:06:16.252Z,40.38
2017-09-20T02:08:43.963Z,42.33
2017-09-20T02:11:11.646Z,46.22
2017-09-20T02:13:39.355Z,43.83
2017-09-20T02:16:07.008Z,43.97
2017-09-20T02:18:34.634Z,51.28
2017-09-20T02:21:02.286Z,52.67
2017-09-20T02:23:29.931Z,45.05
2017-09-20T02:25:57.489Z,42.38
2017-09-20T02:28:25.103Z,55.53
2017-09-20T02:30:52.863Z,50.45
2017-09-20T02:33:20.464Z,58.17
2017-09-20T02:35:48.977Z,71.45
2017-09-20T02:38:16.709Z,58.87
2017-09-20T02:40:44.418Z,67.55
2017-09-20T02:43:12.276Z,69.40
2017-09-20T02:45:40.093Z,64.00
2017-09-20T02:48:07.840Z,75.12
2017-09-20T02:50:35.518Z,71.82
2017-09-20T02:53:03.188Z,82.70
2017-09-20T02:55:31.173Z,87.05
2017-09-20T02:57:58.834Z,83.78
2017-09-20T03:00:26.536Z,92.53
2017-09-20T03:02:54.286Z,92.88
2017-09-20T03:05:21.960Z,79.78
2017-09-20T03:07:49.641Z,89.03
2017-09-20T03:10:17.302Z,91.68
2017-09-20T03:12:45.683Z,81.93
2017-09-20T03:15:13.388Z,79.43
2017-09-20T03:17:41.059Z,74.15
2017-09-20T03:20:08.746Z,76.80
2017-09-20T03:22:36.484Z,67.57
2017-09-20T03:25:04.179Z,70.80
2017-09-20T03:27:31.855Z,81.78
2017-09-20T03:29:59.648Z,69.82
2017-09-20T03:32:27.300Z,82.57
2017-09-20T03:34:55.012Z,82.62
2017-09-20T03:37:22.696Z,75.20
2017-09-20T03:39:50.377Z,79.75
2017-09-20T03:42:18.074Z,98.10
2017-09-20T03:44:46.478Z,88.47
2017-09-20T03:47:14.114Z,90.07
2017-09-20T03:49:41.731Z,85.05
2017-09-20T03:52:09.410Z,86.87
2017-09-20T03:54:37.027Z,91.20
2017-09-20T03:57:04.673Z,95.68
2017-09-20T03:59:32.371Z,90.43
2017-09-20T04:02:00.019Z,93.75
2017-09-20T04:04:27.610Z,89.22
2017-09-20T04:06:55.262Z,90.03
2017-09-20T04:09:22.863Z,88.93
2017-09-20T04:11:50.510Z,93.40
2017-09-20T04:14:18.147Z,109.12
2017-09-20T04:16:45.753Z,104.68
2017-09-20T04:19:13.396Z,110.75
2017-09-20T04:21:41.042Z,131.05
2017-09-20T04:24:08.663Z,128.70
2017-09-20T04:26:36.334Z,150.57
2017-09-20T04:29:03.993Z,158.52
2017-09-20T04:31:31.624Z,132.52
2017-09-20T04:33:59.326Z,144.57
2017-09-20T04:36:27.691Z,143.43
2017-09-20T04:38:55.305Z,122.93
2017-09-20T04:41:22.944Z,126.12
2017-09-20T04:43:50.645Z,109.57
2017-09-20T04:46:18.274Z,99.25
2017-09-20T04:48:45.945Z,89.70
2017-09-20T04:51:13.714Z,101.65
2017-09-20T04:53:41.420Z,91.32
2017-09-20T04:56:09.058Z,107.10
2017-09-20T04:58:36.739Z,105.32
2017-09-20T05:01:04.445Z,91.85
2017-09-20T05:03:32.658Z,84.20
2017-09-20T05:06:00.406Z,95.75
2017-09-20T05:08:28.080Z,98.95
2017-09-20T05:10:55.784Z,87.40
2017-09-20T05:13:23.488Z,116.62
2017-09-20T05:15:51.939Z,107.37
2017-09-20T05:18:19.551Z,103.80
2017-09-20T05:20:47.243Z,92.30
2017-09-20T05:23:15.004Z,96.95
2017-09-20T05:25:42.696Z,108.60
2017-09-20T05:28:10.433Z,108.80
2017-09-20T05:30:38.186Z,108.85
2017-09-20T05:33:06.827Z,96.45
2017-09-20T05:35:34.560Z,98.15
2017-09-20T05:38:02.341Z,115.20
2017-09-20T05:40:31.283Z,115.28
2017-09-20T05:42:59.018Z,117.53
2017-09-20T05:45:26.671Z,123.82
2017-09-20T05:47:55.504Z,129.93
2017-09-20T05:50:23.246Z,122.65
2017-09-20T05:52:50.895Z,110.55
2017-09-20T05:55:18.570Z,112.32
2017-09-20T05:57:46.224Z,91.47
2017-09-20T06:00:13.899Z,78.75
2017-09-20T06:02:41.535Z,72.62
2017-09-20T06:05:09.173Z,68.85
2017-09-20T06:07:36.824Z,61.20
2017-09-20T06:10:04.527Z,64.28
2017-09-20T06:12:32.215Z,61.75
2017-09-20T06:14:59.824Z,58.67
2017-09-20T06:17:27.460Z,62.28
2017-09-20T06:19:55.090Z,55.42
2017-09-20T06:22:22.724Z,59.75
2017-09-20T06:24:50.388Z,59.25
2017-09-20T06:27:17.993Z,62.97
2017-09-20T06:29:45.622Z,61.90
2017-09-20T06:32:13.271Z,67.53
2017-09-20T06:34:40.906Z,72.37
2017-09-20T06:37:08.603Z,75.75
2017-09-20T06:39:36.234Z,75.15
2017-09-20T06:42:03.861Z,75.35
2017-09-20T06:44:31.564Z,75.85
2017-09-20T06:47:00.035Z,80.28
2017-09-20T06:49:28.644Z,85.65
2017-09-20T06:51:56.303Z,94.80
2017-09-20T06:54:23.910Z,83.18
2017-09-20T06:56:51.554Z,84.03
2017-09-20T06:59:19.190Z,95.47
2017-09-20T07:01:46.826Z,82.45
2017-09-20T07:04:14.496Z,86.20
2017-09-20T07:06:42.202Z,88.28
2017-09-20T07:09:10.020Z,88.43
2017-09-20T07:11:37.659Z,89.57
2017-09-20T07:14:05.412Z,91.35
2017-09-20T07:16:33.042Z,90.93
2017-09-20T07:19:00.683Z,80.80
2017-09-20T07:21:28.372Z,80.38
2017-09-20T07:23:56.055Z,79.55
2017-09-20T07:26:23.653Z,79.60
2017-09-20T07:28:51.326Z,77.78
2017-09-20T07:31:18.996Z,82.18
2017-09-20T07:33:46.633Z,81.32
2017-09-20T07:36:14.251Z,81.70
2017-09-20T07:38:41.918Z,66.53
2017-09-20T07:41:09.542Z,86.85
2017-09-20T07:43:37.210Z,78.80
2017-09-20T07:46:04.824Z,74.62
2017-09-20T07:48:32.447Z,83.25
2017-09-20T07:51:00.124Z,82.40
2017-09-20T07:53:27.684Z,78.00
2017-09-20T07:55:55.303Z,74.85
2017-09-20T07:58:22.930Z,77.50
2017-09-20T08:00:51.336Z,78.93
2017-09-20T08:03:18.962Z,66.05
2017-09-20T08:05:46.598Z,72.53
2017-09-20T08:08:14.185Z,77.00
2017-09-20T08:10:41.818Z,73.78
2017-09-20T08:13:09.490Z,79.00
2017-09-20T08:15:37.075Z,67.05
2017-09-20T08:18:04.692Z,74.53
2017-09-20T08:20:32.316Z,71.00
2017-09-20T08:22:59.948Z,72.30
2017-09-20T08:25:27.542Z,76.50
2017-09-20T08:27:55.176Z,82.05
2017-09-20T08:30:22.795Z,99.22
2017-09-20T08:32:50.460Z,92.75
2017-09-20T08:35:18.061Z,85.97
2017-09-20T08:37:45.712Z,86.07
2017-09-20T08:40:13.374Z,89.50
2017-09-20T08:42:41.017Z,94.57
2017-09-20T08:45:08.607Z,88.97
2017-09-20T08:47:36.238Z,99.03
2017-09-20T08:50:03.954Z,98.55
2017-09-20T08:52:31.662Z,89.90
2017-09-20T08:54:59.319Z,84.22
2017-09-20T08:57:26.959Z,83.47
2017-09-20T08:59:54.557Z,89.03
2017-09-20T09:02:22.183Z,91.10
2017-09-20T09:04:49.810Z,84.93
2017-09-20T09:07:18.193Z,85.45
2017-09-20T09:09:46.606Z,81.63
2017-09-20T09:12:14.236Z,84.40
2017-09-20T09:14:41.890Z,72.95
2017-09-20T09:17:09.657Z,66.32
2017-09-20T09:19:37.290Z,64.00
2017-09-20T09:22:04.903Z,67.57
2017-09-20T09:24:32.533Z,71.93
2017-09-20T09:27:00.155Z,76.53
2017-09-20T09:29:27.798Z,87.22
2017-09-20T09:31:55.423Z,74.45
2017-09-20T09:34:23.839Z,73.72
2017-09-20T09:36:51.472Z,68.35
2017-09-20T09:39:19.108Z,71.57
2017-09-20T09:41:46.755Z,61.42
2017-09-20T09:44:14.396Z,65.00
2017-09-20T09:46:42.056Z,62.83
2017-09-20T09:49:09.725Z,57.20
2017-09-20T09:51:37.316Z,65.70
2017-09-20T09:54:04.959Z,53.08
2017-09-20T09:56:32.617Z,48.80
2017-09-20T09:59:00.248Z,45.35
2017-09-20T10:01:27.835Z,46.92
2017-09-20T10:03:55.482Z,45.63
2017-09-20T10:06:23.206Z,45.97
2017-09-20T10:08:52.973Z,47.55
2017-09-20T10:11:20.653Z,42.03
2017-09-20T10:13:48.335Z,46.30
2017-09-20T10:16:16.096Z,40.25
2017-09-20T10:18:43.796Z,40.30
2017-09-20T10:21:11.477Z,38.83
2017-09-20T10:23:39.230Z,33.90
2017-09-20T10:26:06.903Z,41.03
2017-09-20T10:28:34.529Z,45.20
2017-09-20T10:31:02.143Z,34.13
2017-09-20T10:33:31.803Z,32.50
2017-09-20T10:36:00.180Z,30.80
2017-09-20T10:38:28.619Z,32.13
2017-09-20T10:40:56.311Z,28.60
2017-09-20T10:43:23.991Z,30.70
2017-09-20T10:45:51.800Z,27.77
2017-09-20T10:48:19.536Z,28.93
2017-09-20T10:50:47.196Z,27.43
2017-09-20T10:53:14.989Z,31.27
2017-09-20T10:55:42.704Z,27.70
2017-09-20T10:58:10.406Z,26.73
2017-09-20T11:00:38.157Z,27.80
2017-09-20T11:03:05.853Z,22.40
2017-09-20T11:05:33.514Z,22.60
2017-09-20T11:08:01.198Z,26.37
2017-09-20T11:10:28.854Z,28.45
2017-09-20T11:12:57.299Z,27.80
2017-09-20T11:15:25.002Z,28.33
2017-09-20T11:17:52.771Z,28.50
2017-09-20T11:20:20.448Z,21.95
2017-09-20T11:22:48.891Z,23.42
2017-09-20T11:25:16.679Z,30.48
2017-09-20T11:27:44.341Z,34.50
2017-09-20T11:30:12.017Z,25.92
2017-09-20T11:32:39.942Z,22.33
2017-09-20T11:35:07.620Z,20.30
2017-09-20T11:37:35.269Z,21.80
2017-09-20T11:40:02.909Z,19.75
2017-09-20T11:42:30.541Z,14.02
2017-09-20T11:44:58.161Z,13.70
2017-09-20T11:47:25.891Z,15.82
2017-09-20T11:49:53.554Z,15.68
2017-09-20T11:52:21.227Z,15.32
2017-09-20T11:54:48.856Z,16.73
2017-09-20T11:57:16.521Z,17.05
2017-09-20T11:59:44.168Z,19.87
2017-09-20T12:02:12.606Z,21.80
2017-09-20T12:04:40.360Z,16.40
2017-09-20T12:07:08.014Z,32.15
2017-09-20T12:09:35.634Z,17.37
2017-09-20T12:12:03.308Z,16.30
2017-09-20T12:14:31.710Z,20.27
2017-09-20T12:16:59.444Z,24.45
2017-09-20T12:19:27.799Z,26.67
2017-09-20T12:21:55.423Z,16.58
2017-09-20T12:24:23.171Z,13.48
2017-09-20T12:26:50.810Z,20.60
2017-09-20T12:29:18.542Z,22.62
2017-09-20T12:31:46.238Z,22.25
2017-09-20T12:34:13.906Z,18.27
2017-09-20T12:36:41.635Z,18.70
2017-09-20T12:39:09.281Z,17.52
2017-09-20T12:41:36.963Z,16.45
2017-09-20T12:44:04.560Z,16.45
2017-09-20T12:46:32.371Z,17.85
2017-09-20T12:49:00.042Z,18.25
2017-09-20T12:51:27.683Z,21.60
2017-09-20T12:53:55.517Z,14.10
2017-09-20T12:56:23.416Z,14.73
2017-09-20T12:58:51.054Z,18.45
2017-09-20T13:01:18.718Z,23.87
2017-09-20T13:03:46.431Z,16.65
2017-09-20T13:06:14.065Z,17.30
2017-09-20T13:08:41.744Z,20.52
2017-09-20T13:11:09.462Z,17.65
2017-09-20T13:13:37.124Z,22.05
2017-09-20T13:16:05.582Z,12.20
2017-09-20T13:18:33.341Z,10.60
2017-09-20T13:21:01.882Z,17.35
2017-09-20T13:23:30.361Z,9.43
2017-09-20T13:25:58.130Z,12.05
2017-09-20T13:28:25.907Z,14.43
2017-09-20T13:30:53.622Z,11.43
2017-09-20T13:33:21.321Z,6.35
2017-09-20T13:35:49.365Z,5.60
2017-09-20T13:38:17.371Z,10.52
2017-09-20T13:40:45.315Z,8.98
2017-09-20T13:43:13.161Z,12.88
2017-09-20T13:45:40.798Z,8.77
2017-09-20T13:48:08.667Z,11.43
2017-09-20T13:50:36.390Z,8.48
2017-09-20T13:53:04.051Z,10.68
2017-09-20T13:55:32.943Z,7.20
2017-09-20T13:58:11.061Z,8.30
2017-09-20T14:00:38.754Z,5.78
2017-09-20T14:03:07.327Z,4.97
2017-09-20T14:05:35.124Z,9.25
2017-09-20T14:08:02.802Z,5.50
2017-09-20T14:10:30.479Z,5.22
2017-09-20T14:12:58.114Z,5.62
2017-09-20T14:15:25.714Z,4.87
2017-09-20T14:17:53.451Z,4.40
2017-09-20T14:20:21.089Z,7.43
2017-09-20T14:22:48.715Z,4.82
2017-09-20T14:25:17.495Z,7.90
2017-09-20T14:27:45.134Z,9.63
2017-09-20T14:30:12.983Z,4.90
2017-09-20T14:32:40.683Z,5.85
2017-09-20T14:35:08.358Z,13.90
2017-09-20T14:37:36.021Z,4.68
2017-09-20T14:40:04.939Z,6.15
2017-09-20T14:42:36.660Z,12.82
2017-09-20T14:45:04.840Z,11.07
2017-09-20T14:47:32.513Z,11.12
2017-09-20T14:50:00.233Z,15.98
2017-09-20T14:52:27.899Z,10.27
2017-09-20T14:54:55.535Z,13.43
2017-09-20T14:57:23.935Z,7.82
2017-09-20T14:59:51.594Z,10.00
2017-09-20T15:02:19.205Z,11.20
2017-09-20T15:04:46.808Z,10.98
2017-09-20T15:07:14.580Z,12.80
2017-09-20T15:09:42.221Z,9.55
2017-09-20T15:12:09.862Z,10.07
2017-09-20T15:14:37.651Z,11.63
2017-09-20T15:17:05.327Z,11.20
2017-09-20T15:19:32.988Z,8.48
2017-09-20T15:22:00.632Z,8.68
2017-09-20T15:24:28.637Z,4.93
2017-09-20T15:26:56.255Z,4.30
2017-09-20T15:29:23.866Z,10.05
2017-09-20T15:31:54.737Z,4.05
2017-09-20T15:34:22.339Z,6.12
2017-09-20T15:36:53.007Z,7.40
2017-09-20T15:39:20.654Z,9.73
2017-09-20T15:41:48.290Z,6.45
2017-09-20T15:44:15.941Z,15.57
2017-09-20T15:46:43.699Z,6.90
2017-09-20T15:49:11.405Z,6.65
2017-09-20T15:51:39.816Z,3.87
2017-09-20T15:54:07.455Z,5.22
2017-09-20T15:56:35.142Z,3.20
2017-09-20T15:59:02.856Z,2.80
2017-09-20T16:01:30.518Z,2.97
2017-09-20T16:03:58.166Z,4.57
2017-09-20T16:06:29.908Z,4.80
2017-09-20T16:08:58.355Z,2.50
2017-09-20T16:11:25.996Z,2.75
2017-09-20T16:13:53.673Z,4.22
2017-09-20T16:16:21.344Z,2.10
2017-09-20T16:18:48.942Z,1.60
2017-09-20T16:21:17.366Z,1.75
2017-09-20T16:23:45.011Z,1.98
2017-09-20T16:26:12.638Z,1.70
2017-09-20T16:28:40.260Z,2.72
2017-09-20T16:31:07.925Z,6.15
2017-09-20T16:33:35.559Z,1.70
2017-09-20T16:36:03.800Z,1.70
2017-09-20T16:38:31.454Z,2.28
2017-09-20T16:40:59.084Z,2.35
2017-09-20T16:43:26.693Z,3.05
2017-09-20T16:45:54.326Z,4.05
2017-09-20T16:48:21.978Z,2.65
2017-09-20T16:50:49.715Z,2.50
2017-09-20T16:53:17.515Z,10.15
2017-09-20T16:55:45.154Z,4.05
2017-09-20T16:58:12.838Z,4.15
2017-09-20T17:00:40.581Z,5.32
2017-09-20T17:03:08.241Z,6.25
2017-09-20T17:05:35.881Z,5.80
2017-09-20T17:08:03.557Z,6.12
2017-09-20T17:10:31.297Z,6.72
2017-09-20T17:12:58.938Z,5.03
2017-09-20T17:15:26.541Z,5.95
2017-09-20T17:17:54.164Z,6.90
2017-09-20T17:20:21.867Z,5.00
2017-09-20T17:22:49.489Z,5.03
2017-09-20T17:25:17.197Z,8.75
2017-09-20T17:27:45.205Z,8.15
2017-09-20T17:30:14.729Z,7.57
2017-09-20T17:32:42.449Z,11.45
2017-09-20T17:35:10.930Z,14.52
2017-09-20T17:37:38.736Z,11.98
2017-09-20T17:40:06.554Z,11.05
2017-09-20T17:42:34.358Z,10.32
2017-09-20T17:45:02.129Z,10.75
2017-09-20T17:47:29.988Z,10.23
2017-09-20T17:49:59.825Z,14.43
2017-09-20T17:52:27.668Z,13.73
2017-09-20T17:54:55.402Z,16.42
2017-09-20T17:57:23.460Z,13.85
2017-09-20T17:59:51.142Z,12.70
2017-09-20T18:02:20.347Z,14.32
2017-09-20T18:04:48.546Z,19.70
2017-09-20T18:07:16.777Z,15.48
2017-09-20T18:09:44.473Z,12.13
2017-09-20T18:12:12.060Z,9.95
2017-09-20T18:14:39.709Z,14.48
2017-09-20T18:17:07.346Z,15.63
2017-09-20T18:19:35.028Z,7.47
2017-09-20T18:22:02.667Z,11.27
2017-09-20T18:24:30.616Z,11.12
2017-09-20T18:26:58.318Z,12.45
2017-09-20T18:29:26.301Z,12.20
2017-09-20T18:31:53.942Z,12.13
2017-09-20T18:34:21.564Z,13.40
2017-09-20T18:36:50.089Z,13.35
2017-09-20T18:39:18.646Z,8.65
2017-09-20T18:41:46.319Z,16.70
2017-09-20T18:44:14.031Z,13.65
2017-09-20T18:46:41.675Z,9.77
2017-09-20T18:49:09.302Z,13.02
2017-09-20T18:51:36.974Z,14.90
2017-09-20T18:54:04.619Z,13.48
2017-09-20T18:56:32.257Z,15.65
2017-09-20T18:58:59.958Z,16.12
2017-09-20T19:01:27.569Z,12.55
2017-09-20T19:03:55.165Z,17.17
2017-09-20T19:06:22.800Z,11.40
2017-09-20T19:08:50.405Z,15.85
2017-09-20T19:11:18.651Z,12.80
2017-09-20T19:13:46.236Z,18.73
2017-09-20T19:16:14.810Z,15.00
2017-09-20T19:18:42.592Z,11.35
2017-09-20T19:21:10.188Z,9.73
2017-09-20T19:23:37.896Z,11.27
2017-09-20T19:26:05.577Z,11.85
2017-09-20T19:28:33.232Z,18.20
2017-09-20T19:31:01.751Z,18.10
2017-09-20T19:33:29.336Z,12.35
2017-09-20T19:35:56.965Z,11.30
2017-09-20T19:38:24.568Z,17.95
2017-09-20T19:40:52.186Z,13.90
2017-09-20T19:43:19.872Z,18.27
2017-09-20T19:45:47.508Z,10.65
2017-09-20T19:48:15.225Z,13.85
2017-09-20T19:50:42.856Z,12.30
2017-09-20T19:53:10.503Z,14.18
2017-09-20T19:55:38.128Z,13.85
2017-09-20T19:58:05.741Z,21.37
2017-09-20T20:00:34.231Z,14.75
2017-09-20T20:03:01.933Z,13.32
2017-09-20T20:05:29.531Z,16.73
2017-09-20T20:07:57.168Z,16.50
2017-09-20T20:10:24.779Z,13.65
2017-09-20T20:12:52.378Z,13.02
2017-09-20T20:15:19.963Z,12.27
2017-09-20T20:17:47.696Z,14.07
2017-09-20T20:20:15.388Z,14.00
2017-09-20T20:22:43.100Z,15.80
2017-09-20T20:25:10.764Z,14.15
2017-09-20T20:27:38.457Z,14.52
2017-09-20T20:30:06.119Z,14.45
2017-09-20T20:32:33.789Z,16.58
2017-09-20T20:35:01.431Z,19.30
2017-09-20T20:37:29.016Z,9.82
2017-09-20T20:39:56.631Z,9.88
2017-09-20T20:42:24.333Z,10.45
2017-09-20T20:44:51.917Z,13.25
2017-09-20T20:47:19.561Z,12.32
2017-09-20T20:49:47.215Z,15.43
2017-09-20T20:52:14.858Z,9.60
2017-09-20T20:54:42.477Z,10.88
2017-09-20T20:57:10.091Z,10.68
2017-09-20T20:59:38.168Z,8.40
2017-09-20T21:02:05.805Z,9.60
2017-09-20T21:04:34.332Z,11.80
2017-09-20T21:07:01.969Z,11.02
2017-09-20T21:09:29.585Z,13.00
2017-09-20T21:11:57.208Z,7.95
2017-09-20T21:14:24.845Z,14.23
2017-09-20T21:16:52.459Z,14.18
2017-09-20T21:19:20.814Z,14.48
2017-09-20T21:21:48.544Z,13.60
2017-09-20T21:24:16.126Z,13.20
2017-09-20T21:26:43.716Z,15.15
2017-09-20T21:29:17.371Z,17.52
2017-09-20T21:31:44.956Z,12.70
2017-09-20T21:34:12.691Z,12.55
2017-09-20T21:36:40.263Z,12.48
2017-09-20T21:39:07.936Z,10.38
2017-09-20T21:41:35.527Z,10.20
2017-09-20T21:44:03.122Z,15.07
2017-09-20T21:46:30.758Z,9.13
2017-09-20T21:48:59.206Z,9.45
2017-09-20T21:51:27.003Z,10.50
2017-09-20T21:53:55.411Z,17.27
2017-09-20T21:56:23.101Z,16.60
2017-09-20T21:58:50.718Z,10.60
2017-09-20T22:01:18.983Z,16.15
2017-09-20T22:03:47.359Z,15.93
2017-09-20T22:06:15.777Z,11.55
2017-09-20T22:08:43.370Z,12.25
2017-09-20T22:11:11.573Z,10.68
2017-09-20T22:13:39.990Z,11.02
2017-09-20T22:16:19.332Z,13.77
2017-09-20T22:18:59.009Z,15.40
2017-09-20T22:21:38.592Z,18.65
2017-09-20T22:24:18.067Z,22.77
2017-09-20T22:26:46.051Z,11.90
2017-09-20T22:29:13.684Z,25.42
2017-09-20T22:31:41.286Z,15.23
2017-09-20T22:34:08.911Z,18.52
2017-09-20T22:36:36.641Z,24.52
2017-09-20T22:39:04.344Z,27.00
2017-09-20T22:41:31.969Z,16.70
2017-09-20T22:43:59.594Z,19.83
2017-09-20T22:46:27.245Z,22.77
2017-09-20T22:48:54.926Z,15.27
2017-09-20T22:51:22.560Z,19.25
2017-09-20T22:53:50.222Z,19.70
2017-09-20T22:56:17.846Z,16.08
2017-09-20T22:58:45.483Z,16.77
2017-09-20T23:01:13.841Z,23.60
2017-09-20T23:03:41.441Z,17.67
2017-09-20T23:06:09.074Z,16.10
2017-09-20T23:08:36.665Z,19.15
2017-09-20T23:11:04.334Z,20.98
2017-09-20T23:13:31.961Z,21.48
2017-09-20T23:15:59.583Z,16.23
2017-09-20T23:18:27.257Z,12.35
2017-09-20T23:20:54.894Z,15.23
2017-09-20T23:23:22.554Z,16.98
2017-09-20T23:25:50.138Z,15.93
2017-09-20T23:28:17.784Z,20.10
2017-09-20T23:30:45.384Z,88.60
2017-09-20T23:33:13.076Z,86.87
2017-09-20T23:35:40.700Z,40.58
2017-09-20T23:38:08.320Z,25.88
2017-09-20T23:40:36.019Z,23.75
2017-09-20T23:43:03.672Z,22.77
2017-09-20T23:45:31.304Z,21.20
2017-09-20T23:47:58.899Z,23.83
2017-09-20T23:50:26.485Z,21.25
2017-09-20T23:52:54.130Z,22.05
2017-09-20T23:55:21.763Z,19.77
2017-09-20T23:57:49.382Z,23.05
